Time;durP1;ratioP1;P1;durP2;ratioP2;P2;SDS_P1;SDS_P2;PMS_P1;PMS_P2;Temp;Humidity;BMP_temperature;BMP_pressure;BME280_temperature;BME280_humidity;BME280_pressure;Samples;Min_cycle;Max_cycle;Signal;HPM_P1;HPM_P2
2021/12/20 00:01:06;;;;;;;8.55;4.30;;;4.90;99.90;;;;;;5000020;28;20066;-90
2021/12/20 00:03:32;;;;;;;7.50;4.63;;;4.90;99.90;;;;;;4983517;28;20102;-90
2021/12/20 00:05:58;;;;;;;9.85;4.72;;;4.90;99.90;;;;;;4999363;28;20058;-90
2021/12/20 00:08:24;;;;;;;8.73;4.28;;;4.90;99.90;;;;;;4999451;28;20030;-90
2021/12/20 00:10:50;;;;;;;9.35;4.55;;;4.80;99.90;;;;;;4999525;28;20021;-90
2021/12/20 00:13:17;;;;;;;8.70;4.55;;;4.80;99.90;;;;;;4999483;28;20015;-89
2021/12/20 00:15:44;;;;;;;8.00;4.90;;;4.90;99.90;;;;;;4999668;28;20030;-89
2021/12/20 00:18:10;;;;;;;8.05;4.35;;;4.80;99.90;;;;;;4999181;28;20054;-90
2021/12/20 00:20:37;;;;;;;8.85;4.80;;;4.80;99.90;;;;;;4999192;28;20018;-89
2021/12/20 00:23:04;;;;;;;8.52;4.65;;;4.80;99.90;;;;;;4999255;28;20096;-90
2021/12/20 00:25:31;;;;;;;9.15;4.50;;;4.80;99.90;;;;;;5000316;28;20033;-88
2021/12/20 00:27:57;;;;;;;9.82;4.78;;;4.80;99.90;;;;;;4983066;28;20027;-89
2021/12/20 00:30:23;;;;;;;10.05;4.90;;;4.80;99.90;;;;;;4999713;28;20038;-90
2021/12/20 00:32:49;;;;;;;11.82;5.05;;;4.80;99.90;;;;;;4998917;28;20035;-90
2021/12/20 00:35:18;;;;;;;9.77;4.53;;;4.90;99.90;;;;;;4998563;28;20029;-92
2021/12/20 00:40:28;;;;;;;8.25;4.78;;;4.90;99.90;;;;;;5004102;28;20038;-90
2021/12/20 00:42:58;;;;;;;8.70;4.82;;;4.90;99.90;;;;;;4996963;28;20053;-90
2021/12/20 00:45:27;;;;;;;8.70;4.22;;;4.90;99.90;;;;;;5018201;28;20038;-90
2021/12/20 00:47:53;;;;;;;6.95;4.38;;;4.90;99.90;;;;;;5002028;28;20029;-91
2021/12/20 00:50:20;;;;;;;10.60;4.78;;;5.00;99.90;;;;;;5002537;28;20057;-90
2021/12/20 00:52:47;;;;;;;8.82;5.13;;;5.00;99.90;;;;;;5045295;23;20098;-89
2021/12/20 00:55:16;;;;;;;9.18;4.80;;;5.00;99.90;;;;;;4981433;29;20019;-89
2021/12/20 00:57:46;;;;;;;7.85;4.63;;;5.00;99.90;;;;;;4980746;29;20007;-89
2021/12/20 01:00:15;;;;;;;8.45;4.30;;;4.90;99.90;;;;;;4981028;28;20075;-90
2021/12/20 01:02:42;;;;;;;9.07;4.63;;;4.90;99.90;;;;;;4979574;28;20035;-91
2021/12/20 01:05:10;;;;;;;9.48;4.20;;;4.80;99.90;;;;;;4979428;28;20054;-90
2021/12/20 01:07:36;;;;;;;7.88;4.20;;;4.90;99.90;;;;;;4978666;28;20011;-90
2021/12/20 01:10:07;;;;;;;5.78;3.58;;;4.90;99.90;;;;;;4978813;28;20022;-90
2021/12/20 01:12:47;;;;;;;7.38;4.18;;;4.90;99.90;;;;;;4978720;28;20035;-90
2021/12/20 01:15:20;;;;;;;6.30;3.53;;;4.90;99.90;;;;;;4979250;28;20022;-89
2021/12/20 01:17:46;;;;;;;5.95;3.60;;;4.90;99.90;;;;;;4978903;28;20032;-89
2021/12/20 01:20:12;;;;;;;9.38;4.07;;;5.00;99.90;;;;;;4978655;28;20019;-91
2021/12/20 01:22:41;;;;;;;7.47;3.70;;;4.90;99.90;;;;;;4976066;28;20041;-91
2021/12/20 01:25:08;;;;;;;6.03;3.60;;;4.90;99.90;;;;;;4962901;28;20039;-89
2021/12/20 01:27:35;;;;;;;7.53;4.55;;;4.80;99.90;;;;;;4977794;28;20106;-90
2021/12/20 01:30:01;;;;;;;6.63;4.07;;;4.70;99.90;;;;;;4977569;28;20053;-90
2021/12/20 01:32:27;;;;;;;8.05;4.68;;;4.60;99.90;;;;;;4978265;28;20026;-90
2021/12/20 01:34:53;;;;;;;7.35;4.43;;;4.40;99.90;;;;;;4962985;28;20016;-90
2021/12/20 01:37:19;;;;;;;9.45;4.40;;;4.30;99.90;;;;;;4978716;28;20034;-90
2021/12/20 01:39:45;;;;;;;7.25;3.78;;;4.20;99.90;;;;;;4962582;28;20099;-89
2021/12/20 01:42:16;;;;;;;10.23;4.30;;;4.10;99.90;;;;;;4962433;28;20015;-88
2021/12/20 01:44:42;;;;;;;7.20;3.92;;;4.00;99.90;;;;;;4979203;28;20032;-90
2021/12/20 01:47:09;;;;;;;6.57;4.00;;;3.90;99.90;;;;;;4978596;28;20015;-89
2021/12/20 01:49:43;;;;;;;9.57;3.88;;;3.90;99.90;;;;;;4989163;23;20038;-85
2021/12/20 01:52:14;;;;;;;6.55;3.42;;;3.70;99.90;;;;;;4982994;28;20078;-86
2021/12/20 01:54:40;;;;;;;5.03;3.40;;;3.70;99.90;;;;;;4989011;28;20037;-85
2021/12/20 01:57:06;;;;;;;3.60;2.33;;;3.70;99.90;;;;;;4997063;28;20074;-83
2021/12/20 01:59:32;;;;;;;4.60;2.42;;;3.60;99.90;;;;;;4997157;28;20023;-85
2021/12/20 02:01:57;;;;;;;3.65;2.25;;;3.70;99.90;;;;;;4990786;28;20035;-86
2021/12/20 02:04:23;;;;;;;3.70;2.10;;;3.70;99.90;;;;;;4987025;28;20049;-86
2021/12/20 02:06:50;;;;;;;3.38;1.60;;;3.70;99.90;;;;;;4987625;28;20019;-86
2021/12/20 02:09:19;;;;;;;2.28;1.33;;;3.70;99.90;;;;;;4996029;28;20015;-86
2021/12/20 02:11:49;;;;;;;3.30;1.75;;;3.70;99.90;;;;;;4999314;28;20051;-82
2021/12/20 02:14:18;;;;;;;2.65;1.50;;;3.70;99.90;;;;;;4999369;28;20090;-81
2021/12/20 02:16:44;;;;;;;2.58;1.10;;;3.80;99.90;;;;;;4982582;28;20030;-82
2021/12/20 02:19:16;;;;;;;1.50;1.00;;;3.90;99.90;;;;;;5002114;28;20079;-81
2021/12/20 02:21:44;;;;;;;1.38;0.88;;;3.90;99.90;;;;;;5001815;28;20030;-82
2021/12/20 02:24:10;;;;;;;4.60;1.02;;;4.00;99.90;;;;;;5002181;28;20027;-83
2021/12/20 02:26:36;;;;;;;1.15;0.95;;;4.00;99.90;;;;;;5002363;28;20034;-82
2021/12/20 02:29:07;;;;;;;2.08;0.85;;;4.00;99.90;;;;;;5002099;28;20035;-83
2021/12/20 02:39:48;;;;;;;1.08;0.80;;;4.10;99.90;;;;;;5002168;28;20063;-81
2021/12/20 02:42:19;;;;;;;2.38;0.70;;;4.10;99.90;;;;;;5001338;28;20015;-82
2021/12/20 02:45:07;;;;;;;1.38;0.90;;;4.10;99.90;;;;;;5001306;28;20126;-82
2021/12/20 02:47:37;;;;;;;1.92;0.80;;;4.10;99.90;;;;;;5001361;28;20033;-83
2021/12/20 02:50:03;;;;;;;1.65;0.90;;;4.10;99.90;;;;;;5001380;28;20091;-84
2021/12/20 02:52:29;;;;;;;1.15;0.90;;;4.10;99.90;;;;;;5001307;28;20026;-83
2021/12/20 02:54:54;;;;;;;1.40;0.88;;;4.20;99.90;;;;;;5001016;28;20019;-83
2021/12/20 02:57:20;;;;;;;1.58;0.70;;;4.20;99.90;;;;;;5001315;28;20026;-81
2021/12/20 02:59:46;;;;;;;0.80;0.80;;;4.30;99.90;;;;;;5000714;28;20098;-84
2021/12/20 03:02:12;;;;;;;2.05;0.80;;;4.40;99.90;;;;;;4999775;28;20034;-84
2021/12/20 03:04:39;;;;;;;1.42;0.80;;;4.40;99.90;;;;;;4998446;28;20038;-85
2021/12/20 03:07:09;;;;;;;2.97;1.25;;;4.40;99.90;;;;;;4993840;28;20022;-85
2021/12/20 03:09:44;;;;;;;3.58;1.08;;;4.40;99.90;;;;;;4998521;28;20035;-84
2021/12/20 03:12:13;;;;;;;1.48;0.90;;;4.30;99.90;;;;;;4996799;28;20043;-84
2021/12/20 03:14:43;;;;;;;2.35;1.17;;;4.30;99.90;;;;;;4996356;28;20027;-82
2021/12/20 03:17:10;;;;;;;4.32;1.23;;;4.30;99.90;;;;;;4997048;28;20058;-83
2021/12/20 03:19:36;;;;;;;3.92;1.55;;;4.30;99.90;;;;;;4997919;28;20045;-83
2021/12/20 03:22:05;;;;;;;3.47;1.23;;;4.40;99.90;;;;;;4999375;28;20027;-82
2021/12/20 03:24:31;;;;;;;1.35;1.05;;;4.40;99.90;;;;;;4982976;28;20063;-83
2021/12/20 03:26:57;;;;;;;1.23;1.13;;;4.40;99.90;;;;;;4997932;28;20023;-86
2021/12/20 03:29:23;;;;;;;2.35;1.42;;;4.40;99.90;;;;;;4997146;28;20023;-84
2021/12/20 03:31:49;;;;;;;3.22;1.30;;;4.40;99.90;;;;;;4997183;28;20027;-83
2021/12/20 03:34:16;;;;;;;3.53;1.30;;;4.40;99.90;;;;;;4980332;28;20094;-84
2021/12/20 03:36:42;;;;;;;2.15;1.20;;;4.40;99.90;;;;;;4997604;28;20053;-84
2021/12/20 03:39:08;;;;;;;5.72;1.30;;;4.40;99.90;;;;;;4997423;28;20006;-86
2021/12/20 03:41:36;;;;;;;3.08;1.60;;;4.40;99.90;;;;;;4997239;28;20015;-82
2021/12/20 03:44:03;;;;;;;2.25;1.20;;;4.40;99.90;;;;;;4996008;28;20030;-86
2021/12/20 03:46:29;;;;;;;2.55;1.20;;;4.50;99.90;;;;;;4994751;28;20031;-85
2021/12/20 03:48:55;;;;;;;3.28;1.40;;;4.50;99.90;;;;;;4992907;28;20027;-86
2021/12/20 03:51:21;;;;;;;3.03;1.38;;;4.50;99.90;;;;;;4988880;28;20035;-86
2021/12/20 03:53:47;;;;;;;3.63;1.25;;;4.50;99.90;;;;;;4988882;28;20022;-86
2021/12/20 03:56:13;;;;;;;1.98;1.23;;;4.50;99.90;;;;;;4991203;28;20035;-86
2021/12/20 03:58:38;;;;;;;2.42;1.25;;;4.60;99.90;;;;;;4995898;28;20027;-84
2021/12/20 04:01:08;;;;;;;2.47;1.65;;;4.60;99.90;;;;;;4999469;28;20073;-82
2021/12/20 04:03:35;;;;;;;2.25;1.30;;;4.60;99.90;;;;;;5000325;28;20042;-83
2021/12/20 04:06:06;;;;;;;4.82;1.48;;;4.60;99.90;;;;;;4999744;28;20055;-83
2021/12/20 04:08:32;;;;;;;3.97;1.52;;;4.60;99.90;;;;;;4993869;28;20065;-86
2021/12/20 04:10:59;;;;;;;2.50;1.60;;;4.60;99.90;;;;;;4999741;28;20023;-82
2021/12/20 04:13:26;;;;;;;3.78;1.40;;;4.60;99.90;;;;;;4999953;28;20030;-81
2021/12/20 04:15:53;;;;;;;2.67;1.30;;;4.60;99.90;;;;;;4982566;28;20017;-84
2021/12/20 04:18:19;;;;;;;3.88;1.33;;;4.60;99.90;;;;;;4999286;28;20030;-82
2021/12/20 04:20:45;;;;;;;2.35;1.48;;;4.50;99.90;;;;;;4999791;28;20018;-83
2021/12/20 04:23:11;;;;;;;3.55;1.40;;;4.50;99.90;;;;;;4995126;28;20039;-83
2021/12/20 04:25:37;;;;;;;5.28;1.40;;;4.50;99.90;;;;;;4995893;28;20041;-84
2021/12/20 04:28:04;;;;;;;4.03;1.80;;;4.50;99.90;;;;;;4996350;28;20035;-85
2021/12/20 04:30:32;;;;;;;3.22;1.65;;;4.50;99.90;;;;;;4989771;28;20022;-85
2021/12/20 04:32:59;;;;;;;3.35;1.40;;;4.50;99.90;;;;;;4988345;28;20023;-85
2021/12/20 04:35:25;;;;;;;4.90;1.58;;;4.50;99.90;;;;;;4990098;28;20034;-86
2021/12/20 04:37:51;;;;;;;4.45;1.40;;;4.50;99.90;;;;;;4990997;28;20094;-84
2021/12/20 04:40:21;;;;;;;3.95;1.52;;;4.50;99.90;;;;;;4990130;28;20023;-85
2021/12/20 04:42:51;;;;;;;4.72;1.52;;;4.50;99.90;;;;;;4989518;28;20026;-83
2021/12/20 04:45:17;;;;;;;2.70;1.52;;;4.40;99.90;;;;;;4993614;28;20105;-83
2021/12/20 04:47:43;;;;;;;5.47;1.67;;;4.40;99.90;;;;;;4991469;28;20027;-84
2021/12/20 04:50:10;;;;;;;2.67;1.40;;;4.30;99.90;;;;;;4989285;28;20552;-86
2021/12/20 04:52:36;;;;;;;2.63;1.65;;;4.30;99.90;;;;;;4987197;28;20110;-87
2021/12/20 04:55:05;;;;;;;4.43;1.95;;;4.20;99.90;;;;;;4969810;28;20047;-87
2021/12/20 04:57:31;;;;;;;4.55;2.53;;;4.20;99.90;;;;;;4987309;28;20057;-86
2021/12/20 04:59:57;;;;;;;3.45;2.17;;;4.10;99.90;;;;;;4989137;28;20034;-84
2021/12/20 05:02:22;;;;;;;4.75;2.15;;;4.10;99.90;;;;;;4992855;28;20030;-84
2021/12/20 05:04:50;;;;;;;4.30;1.80;;;4.00;99.90;;;;;;4995222;28;20051;-85
2021/12/20 05:07:16;;;;;;;3.53;2.10;;;4.00;99.90;;;;;;4996441;28;20035;-83
2021/12/20 05:09:42;;;;;;;2.55;1.85;;;4.00;99.90;;;;;;4998137;28;20074;-83
2021/12/20 05:12:12;;;;;;;2.92;1.90;;;4.00;99.90;;;;;;4998368;28;20023;-84
2021/12/20 05:14:40;;;;;;;3.00;1.73;;;4.00;99.90;;;;;;4998337;28;20015;-83
2021/12/20 05:17:07;;;;;;;4.15;1.90;;;3.90;99.90;;;;;;4998275;28;20019;-84
2021/12/20 05:19:33;;;;;;;5.55;1.40;;;3.90;99.90;;;;;;4997338;28;20107;-82
2021/12/20 05:21:59;;;;;;;6.88;1.83;;;3.90;99.90;;;;;;4997926;28;20030;-83
2021/12/20 05:24:25;;;;;;;2.53;1.60;;;3.90;99.90;;;;;;4998275;28;20062;-83
2021/12/20 05:26:51;;;;;;;4.93;1.55;;;3.90;99.90;;;;;;4997877;28;20035;-85
2021/12/20 05:29:17;;;;;;;6.43;1.50;;;3.90;99.90;;;;;;4997113;28;20039;-83
2021/12/20 05:31:42;;;;;;;2.53;1.45;;;3.80;99.90;;;;;;4997305;28;20035;-82
2021/12/20 05:34:08;;;;;;;4.60;1.23;;;3.80;99.90;;;;;;4996958;28;20066;-85
2021/12/20 05:36:34;;;;;;;10.05;2.05;;;3.80;99.90;;;;;;4996521;28;20023;-82
2021/12/20 05:39:00;;;;;;;3.97;1.80;;;3.80;99.90;;;;;;4996593;28;20039;-83
2021/12/20 05:41:26;;;;;;;5.18;1.95;;;3.80;99.90;;;;;;4991272;28;20087;-84
2021/12/20 05:43:52;;;;;;;3.78;1.85;;;3.80;99.90;;;;;;4991244;28;20031;-83
2021/12/20 05:46:18;;;;;;;4.85;1.70;;;3.80;99.90;;;;;;4988404;28;20104;-82
2021/12/20 05:48:43;;;;;;;5.38;2.25;;;3.80;99.90;;;;;;4995835;28;20027;-83
2021/12/20 05:51:09;;;;;;;2.92;1.38;;;3.70;99.90;;;;;;4995281;28;20082;-83
2021/12/20 05:53:35;;;;;;;8.73;1.63;;;3.70;99.90;;;;;;4999244;28;20053;-85
2021/12/20 05:56:01;;;;;;;5.28;1.48;;;3.70;99.90;;;;;;5000901;28;20065;-83
2021/12/20 05:58:27;;;;;;;3.40;1.40;;;3.70;99.90;;;;;;5001554;28;20061;-87
2021/12/20 06:00:52;;;;;;;2.50;1.17;;;3.70;99.90;;;;;;5000047;28;20019;-82
2021/12/20 06:03:18;;;;;;;6.25;1.30;;;3.70;99.90;;;;;;4994441;28;20094;-84
2021/12/20 06:05:44;;;;;;;3.20;1.30;;;3.70;99.90;;;;;;4992110;28;20046;-83
2021/12/20 06:08:10;;;;;;;6.30;1.50;;;3.60;99.90;;;;;;4976015;28;20058;-85
2021/12/20 06:10:37;;;;;;;6.93;1.90;;;3.70;99.90;;;;;;4980940;28;20018;-84
2021/12/20 06:13:04;;;;;;;3.83;1.60;;;3.60;99.90;;;;;;4999756;28;20019;-83
2021/12/20 06:15:30;;;;;;;5.40;1.92;;;3.60;99.90;;;;;;4999767;28;20027;-82
2021/12/20 06:17:57;;;;;;;7.82;1.58;;;3.60;99.90;;;;;;5000828;28;20041;-82
2021/12/20 06:20:23;;;;;;;10.15;1.52;;;3.50;99.90;;;;;;5000409;28;20035;-81
2021/12/20 06:22:49;;;;;;;5.45;1.42;;;3.50;99.90;;;;;;4999806;28;20092;-80
2021/12/20 06:25:16;;;;;;;10.15;1.75;;;3.60;99.90;;;;;;4999513;28;20023;-85
2021/12/20 06:27:44;;;;;;;6.18;1.58;;;3.50;99.90;;;;;;5000090;28;20029;-83
2021/12/20 06:30:11;;;;;;;5.32;1.38;;;3.50;99.90;;;;;;5001180;28;20038;-83
2021/12/20 06:32:39;;;;;;;6.10;1.75;;;3.40;99.90;;;;;;5000377;28;20027;-85
2021/12/20 06:35:06;;;;;;;3.67;1.70;;;3.40;99.90;;;;;;5000643;28;20030;-85
2021/12/20 06:37:32;;;;;;;3.47;1.40;;;3.40;99.90;;;;;;5000589;28;20023;-83
2021/12/20 06:39:59;;;;;;;4.55;1.88;;;3.40;99.90;;;;;;5000628;28;20019;-81
2021/12/20 06:42:25;;;;;;;4.47;1.52;;;3.40;99.90;;;;;;5000420;28;20073;-81
2021/12/20 06:44:51;;;;;;;3.50;1.73;;;3.40;99.90;;;;;;5000364;28;20081;-80
2021/12/20 06:47:18;;;;;;;9.90;2.30;;;3.40;99.90;;;;;;5000058;28;20046;-82
2021/12/20 06:49:44;;;;;;;12.07;1.73;;;3.40;99.90;;;;;;4999304;28;20049;-82
2021/12/20 06:52:10;;;;;;;5.60;1.80;;;3.40;99.90;;;;;;4998261;28;20015;-81
2021/12/20 06:54:36;;;;;;;7.25;1.67;;;3.40;99.90;;;;;;4998388;28;20050;-83
2021/12/20 06:57:02;;;;;;;10.25;1.60;;;3.40;99.90;;;;;;5000169;28;20026;-84
2021/12/20 06:59:28;;;;;;;5.53;2.00;;;3.40;99.90;;;;;;5000239;28;20133;-81
2021/12/20 07:01:54;;;;;;;7.97;1.88;;;3.40;99.90;;;;;;4998494;28;20066;-82
2021/12/20 07:04:20;;;;;;;4.55;1.80;;;3.40;99.90;;;;;;4999230;28;20023;-84
2021/12/20 07:06:50;;;;;;;5.93;1.67;;;3.50;99.90;;;;;;4998678;28;20027;-84
2021/12/20 07:09:16;;;;;;;7.35;1.60;;;3.50;99.90;;;;;;4998750;28;20283;-82
2021/12/20 07:11:43;;;;;;;4.47;1.50;;;3.50;99.90;;;;;;4998996;28;20145;-85
2021/12/20 07:14:10;;;;;;;6.20;1.83;;;3.50;99.90;;;;;;4998626;28;20026;-83
2021/12/20 07:16:36;;;;;;;4.30;2.17;;;3.50;99.90;;;;;;4994637;28;20016;-83
2021/12/20 07:19:05;;;;;;;4.38;1.75;;;3.50;99.90;;;;;;4977552;29;20050;-85
2021/12/20 07:21:31;;;;;;;3.97;1.50;;;3.60;99.90;;;;;;4978746;29;20027;-84
2021/12/20 07:23:56;;;;;;;5.95;1.70;;;3.60;99.90;;;;;;4980950;28;20031;-84
2021/12/20 07:26:22;;;;;;;10.57;1.67;;;3.60;99.90;;;;;;4980011;28;20045;-82
2021/12/20 07:28:48;;;;;;;5.95;1.50;;;3.70;99.90;;;;;;4979151;28;20066;-85
2021/12/20 07:31:14;;;;;;;5.85;1.55;;;3.70;99.90;;;;;;4980450;28;20039;-82
2021/12/20 07:33:42;;;;;;;6.63;1.42;;;3.70;99.90;;;;;;4981032;28;20234;-83
2021/12/20 07:36:08;;;;;;;6.15;1.90;;;3.70;99.90;;;;;;4996751;28;20039;-84
2021/12/20 07:38:35;;;;;;;6.18;1.67;;;3.70;99.90;;;;;;4998349;28;20022;-84
2021/12/20 07:41:01;;;;;;;3.97;1.50;;;3.70;99.90;;;;;;4996188;28;20090;-85
2021/12/20 07:43:27;;;;;;;6.40;1.60;;;3.70;99.90;;;;;;4996023;28;20066;-83
2021/12/20 07:45:53;;;;;;;6.18;1.45;;;3.70;99.90;;;;;;4988245;28;20099;-84
2021/12/20 07:48:21;;;;;;;10.20;1.63;;;3.70;99.90;;;;;;4980811;28;20039;-83
2021/12/20 07:50:48;;;;;;;6.13;1.65;;;3.80;99.90;;;;;;5002506;23;20030;-86
2021/12/20 07:53:15;;;;;;;5.70;1.90;;;3.80;99.90;;;;;;5022188;28;20018;-87
2021/12/20 07:55:41;;;;;;;6.28;2.10;;;3.70;99.90;;;;;;5038315;28;20022;-86
2021/12/20 07:58:07;;;;;;;6.13;1.52;;;3.70;99.90;;;;;;5038303;28;20086;-86
2021/12/20 08:00:33;;;;;;;3.58;1.70;;;3.70;99.90;;;;;;5032929;28;20046;-86
2021/12/20 08:03:00;;;;;;;5.72;2.10;;;3.70;99.90;;;;;;5017508;28;20069;-86
2021/12/20 08:05:28;;;;;;;4.60;1.95;;;3.70;99.90;;;;;;5017853;28;20064;-86
2021/12/20 08:07:55;;;;;;;8.00;1.90;;;3.70;99.90;;;;;;5000664;28;20014;-87
2021/12/20 08:10:24;;;;;;;2.63;1.52;;;3.80;99.90;;;;;;5016860;28;20014;-86
2021/12/20 08:12:50;;;;;;;7.07;1.70;;;3.80;99.90;;;;;;5015886;28;20109;-85
2021/12/20 08:15:18;;;;;;;12.18;1.98;;;3.90;99.90;;;;;;5013087;28;20031;-85
2021/12/20 08:17:44;;;;;;;6.40;1.95;;;4.10;99.90;;;;;;5014031;28;20030;-86
2021/12/20 08:20:12;;;;;;;5.22;1.75;;;4.30;99.90;;;;;;5012350;28;20046;-85
2021/12/20 08:22:39;;;;;;;12.43;2.25;;;4.60;99.90;;;;;;5011655;28;20031;-87
2021/12/20 08:25:06;;;;;;;8.10;1.90;;;4.80;99.90;;;;;;5011467;28;20048;-85
2021/12/20 08:27:32;;;;;;;5.70;2.03;;;4.60;99.90;;;;;;5012289;28;20049;-86
2021/12/20 08:29:58;;;;;;;7.78;2.10;;;4.80;99.90;;;;;;5014717;28;20034;-85
2021/12/20 08:32:24;;;;;;;3.00;1.50;;;5.20;99.90;;;;;;5010548;28;20026;-86
2021/12/20 08:34:50;;;;;;;9.80;1.88;;;5.60;99.90;;;;;;5011262;28;20060;-85
2021/12/20 08:37:16;;;;;;;7.90;2.40;;;6.10;99.90;;;;;;5011213;28;20023;-87
2021/12/20 08:39:42;;;;;;;9.85;2.47;;;6.30;99.90;;;;;;5009918;28;20062;-87
2021/12/20 08:42:08;;;;;;;4.40;1.70;;;6.50;99.90;;;;;;5008437;28;20027;-88
2021/12/20 08:44:35;;;;;;;8.38;1.40;;;6.70;99.90;;;;;;5010172;28;20058;-86
2021/12/20 08:47:01;;;;;;;6.05;1.92;;;7.00;99.90;;;;;;5010957;28;20044;-85
2021/12/20 08:49:28;;;;;;;5.10;1.73;;;7.50;99.90;;;;;;4994616;28;20030;-87
2021/12/20 08:51:55;;;;;;;7.32;1.33;;;8.00;99.90;;;;;;5012901;28;20018;-86
2021/12/20 08:54:24;;;;;;;7.25;1.30;;;8.00;99.90;;;;;;4994261;28;20026;-86
2021/12/20 08:56:51;;;;;;;4.65;1.65;;;8.00;99.80;;;;;;4994543;28;20019;-86
2021/12/20 08:59:17;;;;;;;3.55;1.23;;;8.70;99.20;;;;;;5011755;28;20026;-86
2021/12/20 09:01:43;;;;;;;5.22;1.58;;;9.40;98.20;;;;;;5013611;28;20022;-85
2021/12/20 09:04:09;;;;;;;6.68;1.77;;;10.20;96.40;;;;;;5012953;28;20038;-85
2021/12/20 09:06:39;;;;;;;6.57;1.98;;;10.90;95.00;;;;;;5011474;28;20037;-84
2021/12/20 09:09:07;;;;;;;5.80;1.65;;;11.40;93.70;;;;;;5016226;28;20081;-86
2021/12/20 09:11:33;;;;;;;5.25;1.60;;;11.60;92.50;;;;;;5012378;28;20061;-85
2021/12/20 09:13:58;;;;;;;6.32;1.88;;;11.30;92.10;;;;;;5012301;28;20037;-85
2021/12/20 09:16:25;;;;;;;7.60;1.90;;;11.80;91.50;;;;;;5011175;28;20030;-86
2021/12/20 09:18:51;;;;;;;4.75;1.50;;;12.00;90.70;;;;;;5011116;28;20031;-86
2021/12/20 09:21:17;;;;;;;3.95;1.63;;;11.60;90.20;;;;;;5012459;28;20015;-86
2021/12/20 09:23:43;;;;;;;6.68;1.90;;;10.80;91.20;;;;;;5015390;28;20220;-86
2021/12/20 09:26:10;;;;;;;3.88;1.60;;;9.80;92.40;;;;;;5016420;28;20042;-86
2021/12/20 09:28:36;;;;;;;11.30;1.90;;;8.30;94.60;;;;;;5015242;28;20018;-85
2021/12/20 09:31:04;;;;;;;5.28;1.67;;;7.60;95.90;;;;;;5017306;28;20037;-84
2021/12/20 09:33:30;;;;;;;5.50;1.67;;;7.40;96.90;;;;;;5015842;28;20026;-88
2021/12/20 09:35:56;;;;;;;6.38;1.55;;;7.10;97.60;;;;;;5016318;28;20093;-86
2021/12/20 09:38:22;;;;;;;6.38;1.52;;;6.90;98.40;;;;;;4993843;28;20026;-87
2021/12/20 09:43:46;;;;;;;7.97;1.98;;;7.00;98.90;;;;;;4996556;28;20030;-85
2021/12/20 09:46:14;;;;;;;3.35;1.65;;;7.10;98.70;;;;;;5013613;28;20026;-84
2021/12/20 09:48:43;;;;;;;5.68;1.45;;;8.10;97.70;;;;;;5011765;28;20026;-85
2021/12/20 09:51:09;;;;;;;8.02;1.85;;;8.80;96.30;;;;;;5012559;28;20209;-82
2021/12/20 09:53:35;;;;;;;6.32;2.13;;;8.30;96.60;;;;;;5014863;28;20030;-84
2021/12/20 09:56:02;;;;;;;2.88;1.50;;;8.10;97.40;;;;;;5013661;28;20053;-85
2021/12/20 09:58:35;;;;;;;4.88;2.25;;;8.00;97.20;;;;;;5014037;28;20226;-86
2021/12/20 10:01:03;;;;;;;7.38;2.17;;;7.60;98.10;;;;;;4997056;28;20034;-85
2021/12/20 10:03:29;;;;;;;6.55;1.90;;;7.30;98.70;;;;;;5012712;28;20061;-87
2021/12/20 10:05:57;;;;;;;6.97;1.63;;;6.90;99.50;;;;;;5010305;28;20038;-85
2021/12/20 10:08:35;;;;;;;8.15;1.90;;;6.50;99.90;;;;;;5010477;28;20049;-85
2021/12/20 10:11:21;;;;;;;7.63;2.30;;;6.20;99.90;;;;;;5008027;28;20048;-84
2021/12/20 10:13:47;;;;;;;6.97;1.88;;;6.10;99.90;;;;;;5012487;28;20030;-83
2021/12/20 10:16:19;;;;;;;6.57;1.80;;;5.90;99.90;;;;;;5015971;28;20034;-82
2021/12/20 10:18:45;;;;;;;6.95;2.08;;;5.80;99.90;;;;;;5017339;28;20029;-84
2021/12/20 10:21:11;;;;;;;5.10;1.98;;;5.70;99.90;;;;;;5016172;28;20046;-85
2021/12/20 10:23:46;;;;;;;4.35;1.88;;;5.60;99.90;;;;;;5016209;28;20022;-85
2021/12/20 10:26:21;;;;;;;9.25;2.10;;;5.50;99.90;;;;;;5015577;28;20057;-86
2021/12/20 10:28:49;;;;;;;5.38;1.70;;;5.40;99.90;;;;;;5015961;28;20018;-86
2021/12/20 10:31:24;;;;;;;7.22;1.90;;;5.30;99.90;;;;;;5015075;28;20041;-84
2021/12/20 10:33:58;;;;;;;6.13;2.03;;;5.20;99.90;;;;;;5007033;28;20042;-85
2021/12/20 10:36:24;;;;;;;5.37;1.73;;;5.20;99.90;;;;;;5006900;28;20038;-85
2021/12/20 10:38:58;;;;;;;3.25;1.48;;;5.10;99.90;;;;;;5007118;28;20745;-86
2021/12/20 10:41:37;;;;;;;6.00;1.77;;;5.10;99.90;;;;;;5006509;28;20121;-86
2021/12/20 10:44:17;;;;;;;4.53;2.05;;;5.00;99.90;;;;;;5008585;28;20034;-87
2021/12/20 10:46:49;;;;;;;4.43;1.48;;;5.00;99.90;;;;;;5016416;28;20418;-85
2021/12/20 10:49:17;;;;;;;5.38;1.80;;;5.10;99.90;;;;;;5008225;28;20081;-84
2021/12/20 10:51:49;;;;;;;2.78;1.48;;;5.00;99.90;;;;;;4985454;28;20054;-86
2021/12/20 10:54:19;;;;;;;6.00;1.50;;;5.10;99.90;;;;;;4990794;28;20403;-87
2021/12/20 10:56:52;;;;;;;5.18;1.70;;;5.10;99.90;;;;;;4989666;28;20149;-87
2021/12/20 10:59:30;;;;;;;6.60;1.63;;;5.10;99.90;;;;;;4990218;28;20014;-86
2021/12/20 11:05:20;;;;;;;4.32;1.60;;;5.00;99.90;;;;;;4994795;28;20041;-86
2021/12/20 11:10:32;;;;;;;6.90;1.67;;;5.00;99.90;;;;;;4985904;28;20043;-87
2021/12/20 11:12:58;;;;;;;10.23;1.58;;;5.00;99.90;;;;;;4991874;28;20131;-87
2021/12/20 11:15:28;;;;;;;2.85;1.33;;;5.00;99.90;;;;;;4990761;28;20039;-86
2021/12/20 11:17:54;;;;;;;10.98;1.50;;;5.10;99.90;;;;;;4992174;28;20082;-86
2021/12/20 11:20:21;;;;;;;6.55;1.80;;;5.00;99.90;;;;;;4994962;28;20023;-86
2021/12/20 11:22:47;;;;;;;8.93;1.52;;;5.00;99.90;;;;;;4998873;28;20023;-85
2021/12/20 11:25:15;;;;;;;3.58;1.40;;;5.10;99.90;;;;;;4999751;28;20037;-86
2021/12/20 11:27:51;;;;;;;4.50;2.05;;;5.10;99.90;;;;;;4999694;28;20087;-85
2021/12/20 11:30:19;;;;;;;5.78;1.73;;;5.10;99.90;;;;;;4998887;28;20087;-86
2021/12/20 11:32:47;;;;;;;7.03;1.63;;;5.20;99.90;;;;;;4995104;28;20030;-86
2021/12/20 11:35:15;;;;;;;3.47;1.65;;;5.20;99.90;;;;;;4991643;28;20027;-85
2021/12/20 11:37:41;;;;;;;5.60;1.48;;;5.10;99.90;;;;;;5012501;28;20007;-85
2021/12/20 11:40:09;;;;;;;5.68;1.58;;;5.10;99.90;;;;;;4999441;28;20035;-85
2021/12/20 11:42:35;;;;;;;8.93;1.83;;;5.00;99.90;;;;;;4998995;28;20015;-85
2021/12/20 11:45:05;;;;;;;5.18;1.30;;;5.00;99.90;;;;;;4998077;28;20074;-84
2021/12/20 11:47:33;;;;;;;3.50;1.60;;;5.10;99.90;;;;;;4998655;28;20070;-85
2021/12/20 11:50:05;;;;;;;7.50;2.47;;;5.10;99.90;;;;;;5012484;28;20053;-85
2021/12/20 11:52:46;;;;;;;2.05;1.65;;;5.20;99.90;;;;;;5015662;28;20038;-86
2021/12/20 11:55:28;;;;;;;7.82;1.35;;;5.20;99.90;;;;;;5018460;28;20030;-84
2021/12/20 11:57:59;;;;;;;4.43;1.45;;;5.30;99.90;;;;;;5019228;28;20065;-86
2021/12/20 12:00:38;;;;;;;4.38;1.45;;;5.20;99.90;;;;;;5019145;28;20033;-85
2021/12/20 12:03:20;;;;;;;5.40;2.03;;;5.20;99.90;;;;;;5019031;28;20038;-85
2021/12/20 12:06:00;;;;;;;5.63;1.30;;;5.20;99.90;;;;;;5017132;28;20082;-86
2021/12/20 12:08:39;;;;;;;4.97;1.60;;;5.10;99.90;;;;;;5007543;28;20041;-85
2021/12/20 12:11:04;;;;;;;4.70;1.80;;;5.10;99.90;;;;;;5007394;28;20038;-86
2021/12/20 12:13:59;;;;;;;3.30;1.38;;;5.10;99.90;;;;;;5003999;28;20027;-87
2021/12/20 12:17:02;;;;;;;5.10;1.57;;;5.00;99.90;;;;;;5004883;28;20027;-86
2021/12/20 12:19:50;;;;;;;5.32;2.30;;;4.90;99.90;;;;;;5004153;28;20088;-87
2021/12/20 12:22:33;;;;;;;4.95;1.75;;;4.90;99.90;;;;;;5004260;28;20031;-86
2021/12/20 12:24:59;;;;;;;5.22;1.50;;;4.90;99.90;;;;;;5012181;28;20037;-85
2021/12/20 12:27:30;;;;;;;5.47;1.80;;;4.90;99.90;;;;;;5011727;28;20022;-85
2021/12/20 12:30:12;;;;;;;3.58;1.50;;;4.80;99.90;;;;;;5010261;28;20030;-85
2021/12/20 12:32:49;;;;;;;5.50;1.58;;;4.80;99.90;;;;;;5006842;28;20040;-85
2021/12/20 12:35:38;;;;;;;5.05;1.80;;;4.80;99.90;;;;;;5009116;28;20133;-87
2021/12/20 12:38:26;;;;;;;2.97;1.48;;;4.80;99.90;;;;;;5012017;28;20073;-84
2021/12/20 12:41:07;;;;;;;3.17;1.73;;;4.80;99.90;;;;;;5014770;28;20074;-85
2021/12/20 12:43:50;;;;;;;2.80;1.30;;;4.80;99.90;;;;;;5013862;28;20038;-86
2021/12/20 12:46:37;;;;;;;3.15;1.20;;;4.80;99.90;;;;;;5014151;28;20034;-87
2021/12/20 12:49:21;;;;;;;3.45;1.30;;;4.70;99.90;;;;;;5011826;28;20045;-86
2021/12/20 12:51:57;;;;;;;5.55;1.30;;;4.70;99.90;;;;;;5001327;28;20022;-85
2021/12/20 12:54:44;;;;;;;3.92;1.70;;;4.70;99.90;;;;;;5002611;28;20027;-87
2021/12/20 12:57:10;;;;;;;5.53;1.60;;;4.70;99.90;;;;;;5005516;28;20113;-84
2021/12/20 12:59:54;;;;;;;8.85;1.95;;;4.70;99.90;;;;;;5003354;28;20015;-86
2021/12/20 13:02:24;;;;;;;6.53;1.77;;;4.70;99.90;;;;;;5001949;28;20035;-85
2021/12/20 13:05:14;;;;;;;5.43;1.88;;;4.60;99.90;;;;;;5004079;28;20041;-85
2021/12/20 13:08:03;;;;;;;6.47;1.70;;;4.70;99.90;;;;;;5004191;28;20049;-85
2021/12/20 13:10:42;;;;;;;5.95;2.05;;;4.70;99.90;;;;;;5005121;28;20019;-84
2021/12/20 13:13:27;;;;;;;4.70;1.60;;;4.60;99.90;;;;;;5001683;28;20033;-85
2021/12/20 13:16:01;;;;;;;3.53;1.45;;;4.60;99.90;;;;;;5000758;28;20026;-85
2021/12/20 13:18:39;;;;;;;6.80;2.28;;;4.60;99.90;;;;;;4999832;28;20030;-86
2021/12/20 13:21:08;;;;;;;5.50;1.90;;;4.50;99.90;;;;;;4992709;28;20042;-85
2021/12/20 13:23:46;;;;;;;7.50;1.98;;;4.50;99.90;;;;;;4991758;28;20060;-86